Sacramento International Airport
KSMF : now visible

Airfield :











YOU CAN JOIN US ON...

 
LOGIN :

Register | Disclaimer

   EN    FR    IT 

 









Legend :    VFR   Marginal VFR   IFR   Intensive IFR   Very Intensive IFR
Visi :
Ceiling :
>= 8 km
>= 3000ft
5 to 8 km
1000 to 3000 ft
1500m to 5 km
500 to 1000 ft
800 to 1500m
200 to 500 ft
< 800m
< 200 ft
Symbols :   Thunderstorms  Fog  Heavy snow  Heavy precipitations  Wind > 20 kt






- Airport Elevation : 27 ft
- IATA code : SMF


KSMF - Sacramento International

CURRENT METAR :
  • 192053Z 29008KT 10SM CLR 38/13 A2990 RMK AO2 SLP126 T03830133 58013

EXPIRED METARs :
  • 191953Z 25008KT 10SM CLR 37/13 A2992 RMK AO2 SLP131 T03670128
  • 191853Z 28006KT 10SM CLR 35/12 A2994 RMK AO2 SLP137 T03500117
  • 191753Z VRB06KT 10SM CLR 33/13 A2994 RMK AO2 SLP139 T03280133 10328 20178 58003
  • 191653Z 15003KT 10SM CLR 30/13 A2995 RMK AO2 SLP141 T03000128
  • 191553Z 00000KT 10SM SCT250 27/13 A2995 RMK AO2 SLP141 T02670128

TAF KSMF
Valid from the 19 at 18:00 until the 20 at 18:00 UTC


191720Z 1918/2018 VRB05KT P6SM FEW250
FM200200 17008KT P6SM SKC
KZOA FIR / North America



MET'MAP, your aeronautical weather chart ! - Copyright ORBIFLY December 2007 - Disclaimer

ORBIFLY MET'MAP TEAM :

Programming & Development : Alexandra Zaïnal
Original concept : Baudouin d'Aumeries
Technical & hardware support : Manuel Goepfert
Assistance : Marc-Olivier Méhu




SOURCES & CREDITS :

   NOAA       Earth
Advisory